Time;durP1;ratioP1;P1;durP2;ratioP2;P2;SDS_P1;SDS_P2;PMS_P1;PMS_P2;Temp;Humidity;BMP_temperature;BMP_pressure;BME280_temperature;BME280_humidity;BME280_pressure;Samples;Min_cycle;Max_cycle;Signal;HPM_P1;HPM_P2
2022/02/09 00:05:17;;;;;;;21.95;17.10;;;9.10;99.90;;;9.16;84.30;101847.50;6258243;22;20187;-72
2022/02/09 00:07:53;;;;;;;21.42;17.33;;;9.10;99.90;;;9.13;84.46;101848.69;6274069;22;20148;-72
2022/02/09 00:10:21;;;;;;;22.75;17.40;;;9.10;99.90;;;9.21;84.25;101849.69;6273872;22;20174;-72
2022/02/09 00:13:02;;;;;;;22.27;17.98;;;9.10;99.90;;;9.20;84.04;101853.41;6273876;22;20667;-72
2022/02/09 00:15:36;;;;;;;21.23;16.75;;;9.10;99.90;;;9.14;84.68;101855.78;6273766;22;20178;-73
2022/02/09 00:18:13;;;;;;;20.40;15.30;;;9.10;99.90;;;9.18;84.75;101852.72;6273702;22;20147;-73
2022/02/09 00:23:48;;;;;;;19.55;16.77;;;9.10;99.90;;;9.14;84.77;101858.47;6273066;22;20214;-72
2022/02/09 00:29:28;;;;;;;21.02;17.33;;;9.10;99.90;;;9.06;84.82;101855.75;6273922;22;20151;-73
2022/02/09 00:32:30;;;;;;;23.55;17.27;;;9.00;99.90;;;9.04;84.86;101860.50;6273721;22;20159;-72
2022/02/09 00:41:24;;;;;;;21.83;16.30;;;9.00;99.90;;;9.08;84.68;101858.31;6217566;22;20169;-73
2022/02/09 01:38:20;;;;;;;20.00;16.05;;;9.10;99.90;;;9.06;84.61;101880.06;6276475;22;20559;-76
2022/02/09 01:44:30;;;;;;;21.23;16.15;;;9.10;99.90;;;9.01;84.84;101882.44;6211563;22;20164;-75
2022/02/09 01:55:30;;;;;;;18.10;15.15;;;9.00;99.90;;;9.08;84.68;101872.66;6275301;22;20155;-75
2022/02/09 01:57:59;;;;;;;16.83;13.88;;;9.00;99.90;;;9.06;84.78;101871.13;6247169;22;20210;-74
2022/02/09 02:00:29;;;;;;;21.63;15.30;;;9.00;99.90;;;9.05;84.80;101874.84;6274775;22;20156;-75
2022/02/09 02:03:01;;;;;;;19.52;15.77;;;9.00;99.90;;;9.12;84.86;101865.06;6275078;22;20163;-75
2022/02/09 02:05:30;;;;;;;19.65;16.58;;;9.10;99.90;;;9.08;84.65;101863.72;6247771;22;20167;-75
2022/02/09 02:08:01;;;;;;;21.00;15.73;;;9.00;99.90;;;9.07;84.68;101870.97;6274694;22;20159;-73
2022/02/09 02:10:39;;;;;;;19.13;17.08;;;9.00;99.90;;;9.06;84.61;101855.75;6275819;22;20180;-76
2022/02/09 02:13:22;;;;;;;19.33;16.20;;;9.00;99.90;;;9.08;84.62;101853.75;6275306;22;20152;-74
2022/02/09 02:18:51;;;;;;;17.92;14.85;;;9.00;99.90;;;8.93;85.07;101847.34;6273510;22;20190;-75
2022/02/09 02:21:33;;;;;;;18.85;16.23;;;8.90;99.90;;;8.97;85.16;101851.38;6274154;22;20520;-75
2022/02/09 02:26:57;;;;;;;18.30;14.07;;;9.00;99.90;;;9.08;85.16;101856.44;6254822;22;20171;-74
2022/02/09 02:46:48;;;;;;;20.38;15.52;;;8.90;99.90;;;8.96;85.58;101859.63;6273685;22;20546;-75
2022/02/09 02:58:07;;;;;;;14.60;12.93;;;8.90;99.90;;;8.95;85.33;101836.38;6273324;22;20148;-76
2022/02/09 03:09:14;;;;;;;14.07;12.02;;;8.90;99.90;;;8.96;85.25;101843.44;6273551;22;20687;-75
2022/02/09 03:14:32;;;;;;;14.55;13.10;;;8.90;99.90;;;8.99;84.86;101835.88;6270499;22;20624;-75
2022/02/09 03:17:06;;;;;;;15.10;13.55;;;8.90;99.90;;;9.03;84.57;101841.75;6273359;22;20539;-75
2022/02/09 03:19:52;;;;;;;15.68;13.82;;;8.90;99.90;;;9.04;84.25;101838.91;6273765;22;20609;-75
2022/02/09 03:22:26;;;;;;;15.48;11.88;;;9.00;99.90;;;9.07;84.00;101835.84;6272179;22;20160;-74
2022/02/09 03:47:25;;;;;;;17.00;15.20;;;9.00;99.90;;;9.03;83.86;101837.22;6270020;22;20198;-74
2022/02/09 03:53:08;;;;;;;17.83;16.17;;;8.90;99.90;;;9.03;83.78;101837.22;5088801;27;20536;-76
2022/02/09 03:55:44;;;;;;;23.73;16.95;;;9.00;99.90;;;9.04;83.56;101827.25;5068278;28;20267;-75
2022/02/09 03:58:15;;;;;;;21.10;17.42;;;9.00;99.90;;;9.07;83.23;101838.56;5068276;28;20208;-76
2022/02/09 04:00:46;;;;;;;20.63;18.00;;;9.00;99.90;;;9.06;83.39;101836.88;5068333;28;20172;-75
2022/02/09 04:03:23;;;;;;;26.25;20.17;;;9.00;99.90;;;9.05;83.03;101840.56;5068828;28;20164;-74
2022/02/09 04:05:52;;;;;;;21.33;18.25;;;9.00;99.90;;;9.08;83.20;101837.56;5068622;28;20168;-75
2022/02/09 04:08:28;;;;;;;20.67;17.52;;;9.00;99.90;;;9.09;83.05;101835.69;5082929;28;20204;-74
2022/02/09 04:11:06;;;;;;;22.20;18.45;;;9.00;99.90;;;9.08;83.18;101829.44;5067029;28;20218;-74
2022/02/09 04:13:43;;;;;;;24.33;19.20;;;9.00;99.90;;;9.09;82.92;101828.44;5083088;28;20203;-74
2022/02/09 04:16:20;;;;;;;28.65;19.25;;;9.00;99.90;;;9.09;83.07;101824.91;5067767;28;20372;-77
2022/02/09 04:19:00;;;;;;;23.98;21.38;;;9.00;99.90;;;9.08;83.24;101825.91;5067419;28;20601;-74
2022/02/09 04:38:14;;;;;;;27.05;20.77;;;9.00;99.90;;;9.09;83.03;101817.66;5069490;28;20212;-75
2022/02/09 04:41:18;;;;;;;28.00;21.75;;;9.00;99.90;;;9.11;82.70;101815.59;5073708;28;20188;-75
2022/02/09 04:44:05;;;;;;;24.52;21.05;;;9.00;99.90;;;8.98;83.57;101811.72;5073334;28;20199;-76
2022/02/09 04:52:20;;;;;;;30.25;24.27;;;8.90;99.90;;;8.90;83.59;101809.03;5050233;28;20228;-75
2022/02/09 04:54:53;;;;;;;27.20;21.67;;;8.90;99.90;;;8.92;83.33;101807.84;5068197;28;20180;-75
2022/02/09 04:57:35;;;;;;;31.77;23.55;;;8.90;99.90;;;9.05;82.81;101818.97;5085149;28;20203;-74
2022/02/09 05:00:24;;;;;;;29.85;24.05;;;8.90;99.90;;;9.04;82.36;101817.31;5073718;28;20207;-74
2022/02/09 05:03:29;;;;;;;26.33;22.33;;;9.00;99.90;;;9.02;82.24;101816.63;5066707;28;20195;-76
2022/02/09 05:22:42;;;;;;;25.30;19.80;;;8.90;99.90;;;8.99;81.14;101803.47;5054437;28;20183;-73
2022/02/09 05:25:28;;;;;;;19.65;16.85;;;8.90;99.90;;;9.07;80.21;101805.31;5072450;28;20355;-74
2022/02/09 05:28:06;;;;;;;16.55;14.10;;;9.00;99.90;;;9.11;80.27;101798.56;5055359;28;20204;-74
2022/02/09 05:30:44;;;;;;;17.88;15.98;;;9.00;99.90;;;9.09;80.18;101806.00;5057362;28;20192;-76
2022/02/09 05:33:12;;;;;;;18.67;15.43;;;9.00;99.90;;;9.08;79.73;101807.00;5061514;28;20228;-76
2022/02/09 05:35:45;;;;;;;17.15;14.73;;;9.00;99.90;;;9.07;79.70;101799.91;5060704;28;20177;-76
2022/02/09 05:38:14;;;;;;;16.30;14.60;;;9.00;99.90;;;9.04;79.37;101798.41;5055082;28;20213;-76
2022/02/09 05:40:44;;;;;;;18.45;14.40;;;9.00;99.90;;;9.02;79.34;101800.41;5054953;28;20266;-73
2022/02/09 05:43:14;;;;;;;16.23;13.65;;;8.90;99.90;;;9.04;79.24;101794.88;5055606;28;20201;-76
2022/02/09 05:46:08;;;;;;;15.23;13.55;;;9.00;99.90;;;9.06;78.79;101804.47;5054620;28;20180;-75
2022/02/09 05:51:23;;;;;;;16.45;13.73;;;8.90;99.90;;;8.99;78.86;101800.78;5064018;28;20200;-75
2022/02/09 05:54:04;;;;;;;13.93;12.23;;;8.90;99.90;;;9.03;78.58;101793.16;5064877;28;20184;-73
2022/02/09 05:56:37;;;;;;;22.98;12.23;;;9.00;99.90;;;9.01;77.86;101785.22;5060895;28;20192;-75
2022/02/09 05:59:16;;;;;;;14.50;12.95;;;8.90;99.90;;;9.07;77.86;101789.97;5053490;28;20735;-75
2022/02/09 06:01:47;;;;;;;15.05;12.55;;;9.00;99.90;;;9.05;77.77;101783.88;5053269;28;20165;-76
2022/02/09 06:04:16;;;;;;;13.80;12.40;;;9.00;99.90;;;9.06;77.84;101780.16;5052703;28;20660;-74
2022/02/09 06:06:44;;;;;;;13.07;11.77;;;9.00;99.90;;;9.00;77.84;101788.97;5052801;28;20173;-74
2022/02/09 06:09:12;;;;;;;13.20;11.80;;;8.90;99.90;;;8.99;77.89;101781.88;5052972;28;20258;-74
2022/02/09 06:11:45;;;;;;;14.30;11.30;;;8.90;99.90;;;8.97;77.32;101783.03;5050851;28;20316;-74
2022/02/09 06:14:23;;;;;;;13.07;11.70;;;8.90;99.90;;;8.93;77.26;101770.91;5054263;28;20720;-74
2022/02/09 06:19:47;;;;;;;11.75;10.50;;;8.90;99.90;;;8.84;77.16;101780.88;5055085;28;20208;-75
2022/02/09 06:22:15;;;;;;;11.38;10.18;;;8.80;99.90;;;8.89;77.37;101778.50;5053805;28;20181;-75
2022/02/09 06:24:44;;;;;;;16.10;11.48;;;8.80;99.90;;;8.90;76.69;101773.97;5053014;28;20197;-75
2022/02/09 06:27:14;;;;;;;14.40;12.25;;;8.80;99.90;;;8.96;76.47;101768.69;5054629;28;20690;-74
2022/02/09 06:29:46;;;;;;;12.82;11.13;;;8.90;99.90;;;8.96;76.03;101771.41;5055132;28;20546;-75
2022/02/09 06:32:19;;;;;;;14.07;12.05;;;8.90;99.90;;;9.02;75.73;101776.13;5054406;28;20188;-73
2022/02/09 06:34:50;;;;;;;13.00;11.73;;;8.90;99.90;;;8.97;76.22;101766.84;5053314;28;20173;-74
2022/02/09 06:37:22;;;;;;;13.73;10.85;;;8.90;99.90;;;8.99;75.51;101771.06;5067897;28;20610;-75
2022/02/09 06:39:57;;;;;;;16.15;12.15;;;8.90;99.90;;;9.03;75.78;101776.97;5052269;28;20208;-75
2022/02/09 06:42:29;;;;;;;13.75;10.50;;;9.00;99.90;;;9.03;75.72;101772.41;5053524;28;20187;-76
2022/02/09 06:45:04;;;;;;;13.10;11.05;;;9.00;99.90;;;9.09;75.36;101766.34;5052413;28;20231;-75
2022/02/09 06:47:37;;;;;;;12.05;10.85;;;9.00;99.90;;;9.06;75.27;101766.66;5052777;28;20216;-75
2022/02/09 06:50:10;;;;;;;11.40;10.25;;;9.00;99.90;;;9.21;74.87;101768.66;5053610;28;20316;-76
2022/02/09 06:52:42;;;;;;;17.10;10.77;;;9.10;99.90;;;9.11;74.99;101764.28;5052682;28;20212;-75
2022/02/09 06:55:15;;;;;;;16.77;11.20;;;9.00;99.90;;;9.18;74.58;101759.06;5052957;28;20172;-74
2022/02/09 07:00:30;;;;;;;15.02;11.93;;;9.10;99.90;;;9.16;74.20;101761.91;5050626;28;20196;-76
2022/02/09 07:03:00;;;;;;;10.85;9.85;;;9.10;99.90;;;9.27;73.47;101762.56;5053554;28;20169;-74
2022/02/09 07:05:28;;;;;;;12.95;10.63;;;9.20;99.90;;;9.25;73.68;101768.13;5054443;28;20185;-73
2022/02/09 07:07:56;;;;;;;10.85;9.57;;;9.20;99.90;;;9.33;73.41;101778.94;5052775;28;20576;-74
2022/02/09 07:10:25;;;;;;;12.15;9.90;;;9.20;99.90;;;9.30;73.36;101775.72;5052970;28;20216;-74
2022/02/09 07:12:53;;;;;;;10.48;9.48;;;9.20;99.90;;;9.23;73.93;101772.88;5053855;28;20559;-75
2022/02/09 07:15:28;;;;;;;12.25;11.05;;;9.20;99.90;;;9.30;73.23;101781.13;5051289;28;20208;-76
2022/02/09 07:18:05;;;;;;;15.15;11.48;;;9.20;99.90;;;9.34;72.65;101769.00;5050875;28;20508;-75
2022/02/09 07:20:42;;;;;;;17.30;10.98;;;9.30;99.90;;;9.34;72.65;101780.63;5066583;28;20219;-76
2022/02/09 07:23:19;;;;;;;10.15;9.15;;;9.30;99.90;;;9.43;72.72;101778.75;5052580;28;20185;-73
2022/02/09 07:25:48;;;;;;;11.80;10.70;;;9.30;99.90;;;9.44;72.44;101778.56;5031388;28;20169;-73
2022/02/09 07:28:18;;;;;;;18.33;10.85;;;9.30;99.90;;;9.44;72.10;101783.16;5032605;28;20209;-75
2022/02/09 07:30:46;;;;;;;12.10;11.00;;;9.30;1.00;;;9.48;72.18;101781.78;5032260;28;20563;-74
2022/02/09 07:33:16;;;;;;;10.80;9.70;;;9.40;1.00;;;9.44;71.60;101775.03;5031925;28;20213;-74
2022/02/09 07:35:44;;;;;;;11.88;10.25;;;9.30;1.00;;;9.48;71.44;101770.97;5031476;28;20185;-74
2022/02/09 07:38:13;;;;;;;12.70;11.35;;;9.40;1.00;;;9.52;71.14;101772.31;5031792;28;20584;-74
2022/02/09 07:40:42;;;;;;;13.02;10.70;;;9.40;1.00;;;9.54;70.81;101787.31;5032656;28;20541;-75
2022/02/09 07:43:19;;;;;;;13.63;8.68;;;9.40;1.00;;;9.53;71.16;101779.41;5032186;28;20209;-75
2022/02/09 07:46:21;;;;;;;10.77;9.75;;;9.40;1.00;;;9.57;70.77;101780.72;5047312;28;20201;-75
2022/02/09 07:48:59;;;;;;;14.00;10.15;;;9.50;1.00;;;9.54;70.63;101783.75;5031351;28;20216;-75
2022/02/09 07:54:26;;;;;;;10.27;9.35;;;9.50;1.00;;;9.60;70.30;101775.81;5009985;28;20301;-74
2022/02/09 07:56:55;;;;;;;17.02;8.95;;;9.50;1.00;;;9.59;70.35;101768.72;5027836;28;20197;-75
2022/02/09 07:59:24;;;;;;;9.70;8.73;;;9.50;1.00;;;9.65;69.99;101772.59;5032019;28;20217;-75
2022/02/09 08:01:53;;;;;;;11.85;8.93;;;9.60;1.00;;;9.58;69.82;101771.63;5034239;28;20177;-74
2022/02/09 08:04:22;;;;;;;10.40;9.45;;;9.50;1.00;;;9.64;69.97;101772.75;5040468;28;20604;-75
2022/02/09 08:06:51;;;;;;;9.75;8.75;;;9.60;1.00;;;9.69;69.96;101773.06;5040767;28;20201;-74
2022/02/09 08:09:27;;;;;;;11.03;10.00;;;9.60;1.00;;;9.66;69.96;101776.97;5040922;28;20292;-74
2022/02/09 08:12:13;;;;;;;9.40;8.57;;;9.60;1.00;;;9.67;69.64;101765.16;5040738;28;20400;-74
2022/02/09 08:21:05;;;;;;;10.02;8.20;;;9.70;99.90;;;9.82;69.57;101768.81;5031193;28;20213;-73
2022/02/09 08:23:40;;;;;;;7.30;6.17;;;9.70;99.90;;;9.75;69.11;101761.56;5031067;28;20660;-75
2022/02/09 08:26:44;;;;;;;8.35;7.53;;;9.70;99.90;;;9.84;68.80;101769.47;5030843;28;20424;-74
2022/02/09 08:29:20;;;;;;;9.27;8.00;;;9.80;99.90;;;9.79;69.23;101771.00;5044858;28;20804;-73
2022/02/09 08:34:37;;;;;;;6.78;6.18;;;9.80;99.90;;;9.85;68.70;101768.44;5059756;28;20460;-74
2022/02/09 08:37:08;;;;;;;7.60;6.50;;;9.70;99.90;;;9.85;68.11;101757.63;5029636;28;20284;-74
2022/02/09 08:39:37;;;;;;;6.30;5.70;;;9.70;99.90;;;9.85;67.98;101773.84;5033356;28;20347;-73
2022/02/09 08:42:06;;;;;;;6.28;5.78;;;9.70;99.90;;;9.82;68.09;101768.81;5034952;28;20196;-74
2022/02/09 08:44:35;;;;;;;7.32;5.97;;;9.70;99.90;;;9.93;68.12;101763.00;5034999;28;20174;-74
2022/02/09 08:47:05;;;;;;;7.10;6.40;;;9.80;99.90;;;9.96;67.83;101768.06;5035814;28;20178;-75
2022/02/09 08:49:34;;;;;;;8.37;6.70;;;9.80;99.90;;;10.04;67.93;101789.66;5052841;28;20542;-74
2022/02/09 08:52:04;;;;;;;7.30;6.60;;;9.90;99.90;;;9.92;67.40;101771.28;5053377;28;20470;-76
2022/02/09 08:54:38;;;;;;;6.95;5.05;;;9.80;99.90;;;9.96;67.41;101759.94;5053751;28;21020;-71
2022/02/09 08:57:10;;;;;;;7.82;5.28;;;9.90;99.90;;;10.02;67.33;101764.63;5053857;28;20184;-70
2022/02/09 08:59:39;;;;;;;6.00;5.40;;;9.90;99.90;;;10.09;67.04;101761.22;5053879;28;20219;-71
2022/02/09 09:02:12;;;;;;;7.17;5.97;;;9.90;99.90;;;10.17;67.20;101756.63;5054035;28;20779;-70
2022/02/09 09:04:46;;;;;;;5.37;4.97;;;10.00;99.90;;;10.11;66.81;101756.50;5053992;28;20423;-70
2022/02/09 09:07:19;;;;;;;5.13;4.60;;;10.00;99.90;;;10.06;66.75;101761.59;5069311;28;20449;-70
2022/02/09 09:09:59;;;;;;;6.77;5.13;;;10.00;99.90;;;10.04;66.86;101753.63;5053546;28;20449;-71
2022/02/09 10:03:03;;;;;;;6.10;5.00;;;10.00;99.90;;;10.14;65.49;101745.31;5031135;28;20428;-71
2022/02/09 10:31:51;;;;;;;6.50;5.70;;;10.50;99.90;;;10.66;64.12;101723.78;5038241;28;20410;-69
2022/02/09 10:34:26;;;;;;;5.60;5.10;;;10.50;99.90;;;10.79;63.84;101703.22;5038939;28;20494;-70
2022/02/09 10:37:01;;;;;;;6.80;5.53;;;10.60;99.90;;;10.65;63.74;101703.19;5035825;28;20448;-70
2022/02/09 10:39:43;;;;;;;6.60;5.47;;;10.60;99.90;;;10.69;63.56;101705.34;5048259;28;20498;-70
2022/02/09 10:42:16;;;;;;;7.30;5.50;;;10.60;99.90;;;10.72;63.89;101710.38;5034248;28;20420;-71
2022/02/09 10:44:49;;;;;;;8.33;6.33;;;10.60;99.90;;;10.63;63.83;101697.94;5067273;28;20399;-69
2022/02/09 10:47:24;;;;;;;5.03;4.63;;;10.50;99.90;;;10.69;63.20;101702.63;5039403;28;20800;-71
2022/02/09 10:50:12;;;;;;;9.57;4.67;;;10.60;99.90;;;10.66;63.82;101699.44;5038666;28;20530;-70
2022/02/09 10:52:46;;;;;;;5.93;5.17;;;10.60;99.90;;;10.65;63.77;101695.88;5036743;28;20467;-70
2022/02/09 10:55:34;;;;;;;7.50;5.20;;;10.60;99.90;;;10.53;63.76;101701.91;5035811;28;20574;-70
2022/02/09 10:58:09;;;;;;;6.53;5.17;;;10.50;99.90;;;10.53;63.83;101702.78;5032472;28;20429;-70
2022/02/09 11:00:43;;;;;;;5.37;4.87;;;10.50;99.90;;;10.48;63.97;101699.75;5031938;28;20847;-72
2022/02/09 11:03:15;;;;;;;5.10;4.67;;;10.40;99.90;;;10.44;64.02;101695.75;5032410;28;20460;-72
2022/02/09 11:05:46;;;;;;;5.43;4.73;;;10.40;99.90;;;10.34;64.20;101696.00;5032073;28;20412;-71
2022/02/09 11:08:15;;;;;;;4.70;4.33;;;10.30;99.90;;;10.54;63.78;101693.63;5032129;28;21016;-71
2022/02/09 11:10:45;;;;;;;10.87;4.80;;;10.40;99.90;;;10.65;64.05;101690.47;5034082;28;20424;-71
2022/02/09 11:13:14;;;;;;;6.10;4.30;;;10.50;99.90;;;10.68;63.39;101690.13;5032565;28;20432;-71
2022/02/09 11:15:46;;;;;;;7.10;4.30;;;10.50;99.90;;;10.64;63.59;101688.81;5033603;28;20481;-71
2022/02/09 11:18:20;;;;;;;4.37;3.47;;;10.50;99.90;;;10.66;63.17;101692.16;5033079;28;20455;-71
2022/02/09 11:21:13;;;;;;;6.23;4.00;;;10.60;99.90;;;10.80;62.82;101683.22;5032193;28;20383;-73
2022/02/09 11:23:45;;;;;;;3.63;3.33;;;10.60;99.90;;;10.74;62.67;101678.56;5032007;28;20413;-72
2022/02/09 11:26:39;;;;;;;7.00;3.27;;;10.60;99.90;;;10.74;62.92;101678.56;5032262;28;20421;-72
2022/02/09 11:29:40;;;;;;;2.93;2.60;;;10.60;99.90;;;10.72;62.37;101680.59;5032144;28;20456;-72
2022/02/09 11:32:32;;;;;;;4.00;2.87;;;10.60;99.90;;;10.70;63.03;101682.63;5032894;28;20417;-72
2022/02/09 11:35:27;;;;;;;2.73;2.40;;;10.60;99.90;;;10.77;62.24;101683.59;5031970;28;20452;-72
2022/02/09 11:40:54;;;;;;;4.90;3.40;;;10.80;58.70;;;11.19;61.31;101692.97;5030424;28;20543;-70
2022/02/09 11:44:02;;;;;;;3.80;3.40;;;11.00;57.30;;;11.04;61.98;101692.09;5031482;28;20915;-71
2022/02/09 11:58:51;;;;;;;3.70;3.30;;;10.80;57.50;;;10.92;62.73;101690.91;5031223;28;20448;-71
2022/02/09 12:10:20;;;;;;;5.60;3.50;;;10.80;61.40;;;10.78;63.45;101685.28;5031203;28;20431;-72
2022/02/09 12:13:01;;;;;;;3.60;3.30;;;10.70;62.60;;;10.64;63.76;101682.53;5031610;28;20953;-71
2022/02/09 12:19:04;;;;;;;5.27;3.60;;;10.50;65.30;;;10.50;64.80;101676.09;5054457;28;20462;-71
2022/02/09 12:21:50;;;;;;;3.67;3.37;;;10.40;72.90;;;10.57;64.54;101671.59;5087105;28;20699;-70
2022/02/09 12:24:25;;;;;;;5.17;4.17;;;10.50;74.60;;;10.35;65.31;101677.91;5056092;28;20488;-71
2022/02/09 12:27:00;;;;;;;5.60;3.70;;;10.30;78.60;;;10.50;65.69;101680.66;5054783;28;20442;-70
2022/02/09 12:29:34;;;;;;;7.70;4.23;;;10.40;83.90;;;10.56;65.70;101680.75;5054384;28;20935;-71
2022/02/09 12:32:23;;;;;;;5.03;4.03;;;10.40;87.10;;;10.59;65.55;101691.22;5054647;28;20404;-71
2022/02/09 12:34:59;;;;;;;3.90;3.40;;;10.50;86.20;;;10.42;66.27;101695.06;5054328;28;20451;-71
2022/02/09 12:37:30;;;;;;;6.53;4.57;;;10.40;87.70;;;10.29;67.12;101694.84;5054419;28;20433;-72
2022/02/09 12:40:03;;;;;;;7.13;4.87;;;10.30;92.50;;;10.19;68.41;101707.78;5054731;28;20418;-72
2022/02/09 12:42:34;;;;;;;4.83;4.00;;;10.20;98.90;;;9.87;71.11;101701.53;5054629;28;20437;-71
2022/02/09 12:45:08;;;;;;;5.20;4.33;;;9.90;99.90;;;9.61;72.82;101711.81;5055041;28;20489;-70
2022/02/09 12:47:39;;;;;;;5.67;4.10;;;9.70;1.00;;;9.60;73.13;101699.28;5054872;28;20411;-71
2022/02/09 12:50:12;;;;;;;7.35;5.03;;;9.60;1.00;;;9.84;73.13;101698.31;5054353;28;20451;-72
2022/02/09 12:52:43;;;;;;;5.20;4.70;;;9.70;99.90;;;9.94;72.86;101699.78;5054548;28;20616;-71
2022/02/09 12:55:15;;;;;;;5.90;5.32;;;9.80;99.90;;;10.08;72.52;101689.22;5054105;28;20205;-71
2022/02/09 12:57:49;;;;;;;6.70;4.60;;;9.80;63.50;;;10.01;72.52;101684.53;5054610;28;20260;-72
2022/02/09 13:00:28;;;;;;;4.57;4.03;;;9.90;1.00;;;9.96;72.14;101673.44;5053029;28;20624;-71
2022/02/09 13:02:59;;;;;;;5.00;3.90;;;9.90;1.00;;;10.11;71.17;101683.47;5054094;28;20181;-71
2022/02/09 13:05:29;;;;;;;5.67;3.70;;;10.00;1.00;;;10.21;71.08;101675.97;5069357;28;20891;-72
2022/02/09 13:08:00;;;;;;;5.27;4.77;;;10.00;1.00;;;10.33;70.24;101664.53;5058152;28;20433;-72
2022/02/09 13:10:31;;;;;;;5.40;4.03;;;10.20;1.00;;;10.36;70.02;101668.78;5061186;28;20852;-70
2022/02/09 13:13:06;;;;;;;3.43;3.13;;;10.20;1.00;;;10.40;69.27;101659.25;5059926;28;20177;-70
2022/02/09 13:15:44;;;;;;;3.40;3.00;;;10.30;1.00;;;10.39;69.96;101657.56;5092313;28;20759;-71
2022/02/09 13:18:35;;;;;;;4.07;3.27;;;10.30;1.00;;;10.43;69.59;101650.75;5061361;28;20454;-70
2022/02/09 14:12:43;;;;;;;3.03;2.67;;;10.30;1.00;;;10.49;68.45;101666.28;5041987;28;20932;-68
2022/02/09 14:31:31;;;;;;;6.17;3.80;;;10.20;1.00;;;10.21;68.96;101666.00;4972583;28;20447;-71
2022/02/09 14:35:26;;;;;;;3.63;3.33;;;10.00;99.90;;;10.09;69.55;101666.56;5033388;28;20824;-72
2022/02/09 14:54:44;;;;;;;4.00;3.33;;;9.90;1.00;;;9.91;70.69;101670.41;5052482;28;20443;-71
2022/02/09 14:57:18;;;;;;;3.53;3.23;;;9.90;99.90;;;9.95;70.90;101687.97;5052853;28;20455;-70
2022/02/09 14:59:53;;;;;;;3.50;3.20;;;9.90;99.90;;;9.88;71.31;101676.16;5052699;28;20423;-70
2022/02/09 15:02:36;;;;;;;5.33;4.83;;;9.80;1.00;;;9.82;71.74;101682.31;5052994;28;20398;-70
2022/02/09 15:08:07;;;;;;;4.07;3.67;;;9.80;1.00;;;9.79;71.95;101671.81;5031366;28;20295;-69
2022/02/09 15:10:42;;;;;;;4.45;3.83;;;9.80;1.00;;;9.73;72.19;101663.59;5052077;28;20183;-70
2022/02/09 15:13:29;;;;;;;3.78;3.15;;;9.70;1.00;;;9.75;72.27;101670.50;5052746;28;20188;-70
2022/02/09 15:16:06;;;;;;;5.93;3.33;;;9.70;1.00;;;9.84;71.80;101669.44;5051931;28;20248;-70
2022/02/09 15:21:37;;;;;;;4.80;4.30;;;9.70;99.90;;;9.75;72.08;101662.41;5052171;28;20294;-69
2022/02/09 15:24:07;;;;;;;3.92;3.40;;;9.70;1.00;;;9.66;72.30;101666.16;5051850;28;20423;-70
2022/02/09 15:26:36;;;;;;;6.90;3.50;;;9.60;99.90;;;9.74;72.65;101671.53;5051893;28;20222;-70
2022/02/09 15:29:05;;;;;;;4.07;3.60;;;9.60;1.00;;;9.72;72.31;101680.84;5051753;28;20192;-69
2022/02/09 15:31:39;;;;;;;3.93;3.53;;;9.70;99.90;;;9.65;72.67;101675.28;5051461;28;20432;-70
2022/02/09 15:34:15;;;;;;;7.70;3.90;;;9.60;99.90;;;9.62;73.03;101683.75;5051295;28;20422;-69
2022/02/09 15:36:54;;;;;;;4.70;4.30;;;9.60;99.90;;;9.65;73.14;101680.69;5051239;28;20820;-70
2022/02/09 15:39:23;;;;;;;3.83;3.40;;;9.60;95.20;;;9.62;73.26;101675.66;5051367;28;20422;-70
2022/02/09 15:42:07;;;;;;;4.53;3.23;;;9.60;1.00;;;9.46;73.72;101681.97;5051461;28;20514;-70
2022/02/09 16:09:53;;;;;;;5.00;4.60;;;9.20;99.90;;;9.17;75.68;101673.66;5051727;28;20197;-70
2022/02/09 16:23:41;;;;;;;4.60;4.20;;;9.10;99.90;;;9.20;75.22;101677.88;5052636;28;20431;-70
2022/02/09 16:33:12;;;;;;;4.57;4.00;;;9.10;99.90;;;9.22;74.97;101678.53;5051860;28;20725;-71
2022/02/09 16:35:29;;;;;;;4.60;4.20;;;9.20;99.90;;;9.38;74.47;101668.50;5031670;28;20228;-70
2022/02/09 16:37:47;;;;;;;4.82;4.43;;;9.30;99.90;;;9.36;74.17;101669.69;5031880;28;20297;-71
2022/02/09 16:46:14;;;;;;;7.20;4.00;;;9.30;99.90;;;9.31;74.07;101690.97;5031225;28;20218;-71
2022/02/09 16:48:52;;;;;;;4.97;4.57;;;9.30;99.90;;;9.39;73.71;101688.28;5031375;28;20749;-70
2022/02/09 16:51:22;;;;;;;4.72;4.25;;;9.30;99.90;;;9.37;73.80;101687.59;5031414;28;20186;-71
2022/02/09 16:54:06;;;;;;;4.93;4.50;;;9.30;99.90;;;9.31;74.07;101693.69;5031071;28;20189;-69
2022/02/09 16:56:50;;;;;;;5.00;4.60;;;9.30;99.90;;;9.29;74.04;101693.03;5046108;28;20244;-68
2022/02/09 17:19:02;;;;;;;5.13;4.63;;;9.30;99.90;;;9.42;74.12;101690.59;5055758;28;20649;-72
2022/02/09 17:21:32;;;;;;;5.00;4.60;;;9.30;99.90;;;9.47;73.55;101689.06;5055565;28;20610;-72
2022/02/09 17:24:05;;;;;;;4.85;4.38;;;9.40;99.90;;;9.28;73.42;101688.63;5056069;28;20574;-73
2022/02/09 17:26:34;;;;;;;5.83;5.30;;;9.30;99.90;;;9.35;73.35;101685.06;5054448;28;20193;-73
2022/02/09 17:29:04;;;;;;;6.35;5.85;;;9.30;99.90;;;9.41;73.06;101688.91;5056098;28;20411;-74
2022/02/09 17:31:45;;;;;;;5.50;5.05;;;9.30;99.90;;;9.39;72.80;101680.16;5060883;28;20188;-75
2022/02/09 17:37:12;;;;;;;4.57;4.17;;;9.40;99.90;;;9.43;72.56;101690.44;5059865;28;20201;-71
2022/02/09 17:53:39;;;;;;;4.40;4.10;;;9.40;99.90;;;9.45;71.80;101695.66;5055206;28;20657;-72
2022/02/09 17:56:14;;;;;;;4.65;4.35;;;9.40;99.90;;;9.48;71.63;101688.06;5054370;28;20773;-73
2022/02/09 17:58:48;;;;;;;6.10;4.40;;;9.40;99.90;;;9.51;71.50;101708.47;5054653;28;20198;-72
2022/02/09 18:01:20;;;;;;;4.90;4.50;;;9.50;99.90;;;9.51;71.64;101700.34;5054755;28;20177;-70
2022/02/09 18:03:54;;;;;;;5.15;4.28;;;9.40;99.90;;;9.44;71.58;101704.78;5054506;28;20215;-71
2022/02/09 18:06:27;;;;;;;4.80;4.40;;;9.40;99.90;;;9.47;71.48;101704.44;5054068;28;20713;-71
2022/02/09 18:09:01;;;;;;;6.15;4.57;;;9.40;99.90;;;9.44;71.69;101705.59;5052969;28;20284;-70
2022/02/09 18:11:51;;;;;;;3.95;3.55;;;9.40;99.90;;;9.47;71.56;101705.28;5052694;28;20267;-70
2022/02/09 18:14:46;;;;;;;5.22;4.72;;;9.40;99.90;;;9.45;71.61;101711.84;5053399;28;20292;-70
2022/02/09 18:27:01;;;;;;;6.85;5.82;;;9.40;99.90;;;9.44;71.99;101704.78;5052401;28;20987;-72
2022/02/09 18:29:27;;;;;;;5.97;5.47;;;9.40;99.90;;;9.37;72.64;101720.00;5053015;28;20530;-70
2022/02/09 18:32:37;;;;;;;8.30;6.85;;;9.30;99.90;;;9.41;72.46;101710.53;5052817;28;20184;-71
2022/02/09 18:38:12;;;;;;;10.98;6.22;;;9.30;99.90;;;9.33;72.84;101705.16;5052441;28;20258;-71
2022/02/09 18:43:30;;;;;;;7.65;6.95;;;9.30;99.90;;;9.36;73.04;101712.91;5033602;28;20208;-70
2022/02/09 18:46:08;;;;;;;9.40;8.00;;;9.30;99.90;;;9.35;72.99;101711.22;5032625;28;20214;-72
2022/02/09 18:49:02;;;;;;;8.02;7.22;;;9.30;99.90;;;9.43;72.82;101714.75;5032336;28;20515;-71
2022/02/09 18:57:20;;;;;;;8.35;6.53;;;9.40;99.90;;;9.37;72.83;101703.78;5032039;28;20669;-70
2022/02/09 18:59:58;;;;;;;6.95;6.28;;;9.30;99.90;;;9.35;73.18;101708.53;5032287;28;20267;-71
2022/02/09 19:02:45;;;;;;;7.22;6.63;;;9.30;99.90;;;9.34;72.82;101706.84;5032298;28;20276;-71
2022/02/09 19:05:28;;;;;;;8.18;7.40;;;9.30;99.90;;;9.37;72.67;101709.19;5049688;28;20235;-71
2022/02/09 19:08:31;;;;;;;8.65;7.30;;;9.30;99.90;;;9.39;72.41;101707.19;5035235;28;20197;-71
2022/02/09 19:16:45;;;;;;;7.65;6.95;;;9.30;99.90;;;9.48;72.27;101708.81;5031971;28;20193;-70
2022/02/09 19:19:32;;;;;;;7.85;7.22;;;9.40;99.90;;;9.44;72.28;101711.00;5031996;28;20220;-71
2022/02/09 19:30:38;;;;;;;8.20;7.40;;;9.40;99.90;;;9.52;71.93;101710.16;5011146;28;20451;-70
2022/02/09 19:33:28;;;;;;;8.23;7.47;;;9.40;99.90;;;9.55;71.74;101709.78;5030138;28;20193;-72
2022/02/09 19:47:14;;;;;;;7.85;7.25;;;9.40;99.90;;;9.47;71.81;101709.84;5052931;28;20173;-75
2022/02/09 19:52:33;;;;;;;8.07;7.18;;;9.40;99.90;;;9.46;71.47;101711.69;5043901;28;20235;-71
2022/02/09 19:55:23;;;;;;;9.07;8.30;;;9.40;99.90;;;9.42;71.68;101713.06;5055686;28;20176;-74